Time;durP1;ratioP1;P1;durP2;ratioP2;P2;SDS_P1;SDS_P2;PMS_P1;PMS_P2;Temp;Humidity;BMP_temperature;BMP_pressure;BME280_temperature;BME280_humidity;BME280_pressure;Samples;Min_cycle;Max_cycle;Signal;HPM_P1;HPM_P2
2022/08/27 00:02:09;;;;;;;6.90;3.00;;;15.30;99.90;;;;;;6341420;22;20075;-76
2022/08/27 00:04:36;;;;;;;5.85;3.15;;;15.30;99.90;;;;;;6341038;22;20006;-74
2022/08/27 00:07:03;;;;;;;7.43;3.05;;;15.20;99.90;;;;;;6339635;22;20055;-76
2022/08/27 00:09:30;;;;;;;7.45;3.60;;;15.10;99.90;;;;;;6340490;22;20022;-75
2022/08/27 00:11:57;;;;;;;6.72;3.58;;;15.20;99.90;;;;;;6340582;22;20002;-75
2022/08/27 00:14:24;;;;;;;7.38;3.45;;;15.10;99.90;;;;;;6341103;22;20002;-75
2022/08/27 00:16:49;;;;;;;7.10;3.92;;;15.10;99.90;;;;;;6340756;22;19999;-76
2022/08/27 00:19:16;;;;;;;9.10;3.95;;;15.10;99.90;;;;;;6340078;22;20476;-74
2022/08/27 00:21:41;;;;;;;6.60;3.90;;;15.00;99.90;;;;;;6339945;22;19999;-74
2022/08/27 00:24:07;;;;;;;4.70;3.45;;;15.00;99.90;;;;;;6344877;22;20048;-75
2022/08/27 00:26:33;;;;;;;6.68;4.22;;;15.00;99.90;;;;;;6342563;22;20435;-74
2022/08/27 00:28:59;;;;;;;9.23;4.38;;;15.10;99.90;;;;;;6342464;22;20007;-75
2022/08/27 00:31:25;;;;;;;4.60;4.05;;;15.10;99.90;;;;;;6347074;22;20472;-74
2022/08/27 00:33:51;;;;;;;4.93;3.63;;;15.10;99.90;;;;;;6344569;22;20003;-74
2022/08/27 00:36:16;;;;;;;7.50;4.18;;;15.10;99.90;;;;;;6345932;22;20037;-76
2022/08/27 00:38:42;;;;;;;5.20;3.97;;;15.20;99.90;;;;;;6343563;22;20065;-76
2022/08/27 00:41:10;;;;;;;6.47;3.40;;;15.30;99.90;;;;;;6342903;22;19998;-75
2022/08/27 00:43:49;;;;;;;7.65;3.63;;;15.30;99.90;;;;;;6340214;22;19999;-75
2022/08/27 00:46:33;;;;;;;5.55;3.17;;;15.30;99.90;;;;;;6340660;22;20010;-75
2022/08/27 00:49:05;;;;;;;4.97;3.70;;;15.40;99.90;;;;;;6339557;22;20014;-74
2022/08/27 00:51:31;;;;;;;9.57;4.03;;;15.40;99.90;;;;;;6340333;22;20003;-75
2022/08/27 00:53:58;;;;;;;6.15;3.25;;;15.50;99.90;;;;;;6340611;22;20002;-74
2022/08/27 00:56:30;;;;;;;8.20;3.60;;;15.50;99.90;;;;;;6339031;22;20458;-75
2022/08/27 00:58:56;;;;;;;6.78;3.40;;;15.50;99.90;;;;;;6340403;22;20366;-75
2022/08/27 01:01:28;;;;;;;8.63;3.85;;;15.50;99.90;;;;;;6340309;22;20056;-74
2022/08/27 01:04:01;;;;;;;5.60;3.92;;;15.60;99.90;;;;;;6339585;22;19997;-74
2022/08/27 01:06:32;;;;;;;8.98;3.72;;;15.60;99.90;;;;;;6339730;22;20003;-76
2022/08/27 01:09:06;;;;;;;6.03;3.72;;;15.60;99.90;;;;;;6340231;22;20039;-74
2022/08/27 01:11:32;;;;;;;5.43;4.10;;;15.50;99.90;;;;;;6339326;22;19994;-74
2022/08/27 01:13:58;;;;;;;7.13;3.53;;;15.50;99.90;;;;;;6340947;22;20120;-75
2022/08/27 01:16:38;;;;;;;8.30;3.67;;;15.50;99.90;;;;;;6340528;22;20019;-76
2022/08/27 01:19:14;;;;;;;6.20;3.45;;;15.60;99.90;;;;;;6339224;22;20488;-76
2022/08/27 01:22:04;;;;;;;5.57;3.83;;;15.50;99.90;;;;;;6339615;22;20006;-73
2022/08/27 01:24:35;;;;;;;7.07;3.13;;;15.50;99.90;;;;;;6339589;22;20120;-76
2022/08/27 01:27:03;;;;;;;4.55;2.83;;;15.50;99.90;;;;;;6339260;22;20450;-75
2022/08/27 01:29:29;;;;;;;4.20;2.97;;;15.50;99.90;;;;;;6339852;22;20014;-75
2022/08/27 01:32:06;;;;;;;4.00;2.63;;;15.50;99.90;;;;;;6339591;22;20006;-75
2022/08/27 01:34:32;;;;;;;5.72;2.78;;;15.50;99.90;;;;;;6335470;22;20001;-76
2022/08/27 01:36:57;;;;;;;9.55;3.38;;;15.50;99.90;;;;;;6339460;22;20034;-75
2022/08/27 01:39:23;;;;;;;6.65;3.53;;;15.50;99.90;;;;;;6340120;22;19999;-75
2022/08/27 01:41:49;;;;;;;4.40;3.30;;;15.50;99.90;;;;;;6340600;22;20411;-75
2022/08/27 01:44:15;;;;;;;6.97;3.50;;;15.50;99.90;;;;;;6340065;22;20013;-76
2022/08/27 01:46:40;;;;;;;7.13;3.78;;;15.50;99.90;;;;;;6338649;22;20074;-75
2022/08/27 01:49:09;;;;;;;4.63;3.60;;;15.40;99.90;;;;;;6341114;22;20011;-75
2022/08/27 01:51:34;;;;;;;6.68;4.10;;;15.40;99.90;;;;;;6340885;22;19999;-74
2022/08/27 01:54:00;;;;;;;6.28;3.63;;;15.40;99.90;;;;;;6338872;22;19998;-75
2022/08/27 01:56:26;;;;;;;5.28;3.45;;;15.40;99.90;;;;;;6341640;22;20002;-75
2022/08/27 01:58:54;;;;;;;4.85;3.80;;;15.30;99.90;;;;;;6340206;22;20137;-76
2022/08/27 02:01:20;;;;;;;9.15;3.90;;;15.30;99.90;;;;;;6339157;22;19999;-76
2022/08/27 02:03:47;;;;;;;4.15;3.45;;;15.30;99.90;;;;;;6339963;22;20010;-76
2022/08/27 02:06:13;;;;;;;4.60;3.67;;;15.20;99.90;;;;;;6339438;22;20065;-75
2022/08/27 02:08:41;;;;;;;4.38;3.67;;;15.20;99.90;;;;;;6338217;22;20482;-76
2022/08/27 02:11:07;;;;;;;6.25;3.85;;;15.40;99.90;;;;;;6339662;22;20010;-77
2022/08/27 02:13:33;;;;;;;8.73;4.28;;;15.30;99.90;;;;;;6339021;22;20300;-75
2022/08/27 02:15:59;;;;;;;5.10;4.47;;;15.20;99.90;;;;;;6339402;22;20323;-75
2022/08/27 02:18:24;;;;;;;4.53;3.92;;;15.30;99.90;;;;;;6339606;22;20005;-76
2022/08/27 02:20:50;;;;;;;5.45;3.97;;;15.20;99.90;;;;;;6338702;22;20442;-75
2022/08/27 02:23:17;;;;;;;5.47;4.40;;;15.20;99.90;;;;;;6339725;22;20070;-75
2022/08/27 02:25:45;;;;;;;6.47;4.35;;;15.20;99.90;;;;;;6339481;22;20006;-75
2022/08/27 02:28:14;;;;;;;4.80;4.40;;;15.10;99.90;;;;;;6338154;22;20116;-76
2022/08/27 02:30:39;;;;;;;5.13;4.63;;;15.10;99.90;;;;;;6339072;22;20006;-75
2022/08/27 02:33:05;;;;;;;5.78;5.18;;;15.00;99.90;;;;;;6339553;22;20006;-76
2022/08/27 02:35:33;;;;;;;7.32;6.22;;;15.00;99.90;;;;;;6338044;22;19999;-76
2022/08/27 02:37:59;;;;;;;8.63;5.60;;;15.00;99.90;;;;;;6339507;22;20064;-74
2022/08/27 02:40:25;;;;;;;5.60;5.10;;;15.00;99.90;;;;;;6339416;22;20419;-73
2022/08/27 02:42:52;;;;;;;9.85;5.47;;;14.90;99.90;;;;;;6338140;22;20003;-76
2022/08/27 02:45:19;;;;;;;5.47;4.97;;;14.80;99.90;;;;;;6341536;22;19999;-75
2022/08/27 02:47:46;;;;;;;5.85;5.38;;;14.80;99.90;;;;;;6339148;22;20014;-75
2022/08/27 02:50:13;;;;;;;8.40;5.47;;;14.70;99.90;;;;;;6340196;22;20132;-73
2022/08/27 02:52:39;;;;;;;8.35;6.07;;;14.60;99.90;;;;;;6340950;22;20026;-74
2022/08/27 02:55:06;;;;;;;9.32;6.00;;;14.60;99.90;;;;;;6340890;22;20006;-74
2022/08/27 02:57:32;;;;;;;7.97;7.10;;;14.60;99.90;;;;;;6340250;22;20055;-74
2022/08/27 02:59:57;;;;;;;8.63;6.45;;;14.60;99.90;;;;;;6340959;22;20370;-73
2022/08/27 03:02:23;;;;;;;8.82;6.55;;;14.60;99.90;;;;;;6341600;22;20002;-74
2022/08/27 03:04:49;;;;;;;7.00;6.40;;;14.50;99.90;;;;;;6340181;22;20002;-74
2022/08/27 03:07:15;;;;;;;7.63;6.45;;;14.50;99.90;;;;;;6341202;22;20099;-74
2022/08/27 03:09:41;;;;;;;8.70;7.07;;;14.50;99.90;;;;;;6340439;22;20434;-75
2022/08/27 03:12:08;;;;;;;8.95;6.57;;;14.50;99.90;;;;;;6341440;22;19999;-76
2022/08/27 03:14:33;;;;;;;8.23;6.72;;;14.50;99.90;;;;;;6341305;22;20083;-76
2022/08/27 03:18:16;;;;;;;9.38;6.60;;;14.50;99.90;;;;;;6340418;22;20015;-75
2022/08/27 03:19:45;;;;;;;6.45;5.85;;;14.50;99.90;;;;;;6340470;22;20006;-75
2022/08/27 03:22:11;;;;;;;8.98;5.40;;;14.40;99.90;;;;;;6340991;22;20014;-75
2022/08/27 03:24:39;;;;;;;10.55;6.35;;;14.50;99.90;;;;;;6339757;22;20384;-75
2022/08/27 03:27:04;;;;;;;7.80;7.00;;;14.40;99.90;;;;;;6340380;22;20447;-76
2022/08/27 03:29:31;;;;;;;7.32;6.05;;;14.40;99.90;;;;;;6340720;22;20003;-75
2022/08/27 03:31:58;;;;;;;6.50;5.90;;;14.40;99.90;;;;;;6339780;22;20026;-75
2022/08/27 03:34:23;;;;;;;6.03;5.53;;;14.40;99.90;;;;;;6340984;22;20034;-74
2022/08/27 03:36:50;;;;;;;6.50;5.70;;;14.30;99.90;;;;;;6339579;22;20423;-75
2022/08/27 03:39:16;;;;;;;8.65;5.20;;;14.30;99.90;;;;;;6339868;22;20327;-74
2022/08/27 03:41:43;;;;;;;7.43;5.45;;;14.40;99.90;;;;;;6340927;22;20021;-75
2022/08/27 03:44:08;;;;;;;6.50;5.65;;;14.30;99.90;;;;;;6340835;22;20011;-74
2022/08/27 03:46:34;;;;;;;5.72;5.22;;;14.20;99.90;;;;;;6339923;22;20387;-75
2022/08/27 03:48:59;;;;;;;5.80;5.30;;;14.30;99.90;;;;;;6340399;22;20010;-75
2022/08/27 03:51:25;;;;;;;5.22;4.70;;;14.20;99.90;;;;;;6341497;22;20073;-74
2022/08/27 03:53:50;;;;;;;7.28;5.40;;;14.20;99.90;;;;;;6340057;22;19999;-74
2022/08/27 03:56:16;;;;;;;6.15;5.13;;;14.20;99.90;;;;;;6340091;22;20418;-75
2022/08/27 03:58:42;;;;;;;5.07;4.63;;;14.20;99.90;;;;;;6340216;22;20003;-75
2022/08/27 04:01:07;;;;;;;5.43;4.40;;;14.20;99.90;;;;;;6340117;22;19995;-75
2022/08/27 04:03:34;;;;;;;5.47;4.05;;;14.20;99.90;;;;;;6341632;22;20002;-75
2022/08/27 04:06:02;;;;;;;5.18;4.50;;;14.20;99.90;;;;;;6340567;22;19999;-74
2022/08/27 04:08:28;;;;;;;4.30;3.90;;;14.20;99.90;;;;;;6340526;22;20057;-75
2022/08/27 04:10:54;;;;;;;4.70;4.18;;;14.10;99.90;;;;;;6340060;22;20424;-75
2022/08/27 04:13:22;;;;;;;4.20;3.75;;;14.10;99.90;;;;;;6339631;22;20011;-75
2022/08/27 04:15:50;;;;;;;5.72;4.18;;;14.10;99.90;;;;;;6340469;22;20029;-75
2022/08/27 04:18:16;;;;;;;4.72;3.90;;;14.10;99.90;;;;;;6340261;22;20019;-75
2022/08/27 04:20:43;;;;;;;4.40;3.95;;;14.10;99.90;;;;;;6339430;22;20048;-74
2022/08/27 04:23:09;;;;;;;7.80;4.10;;;14.10;99.90;;;;;;6340472;22;20373;-75
2022/08/27 04:25:39;;;;;;;6.90;4.00;;;14.10;99.90;;;;;;6340439;22;20003;-74
2022/08/27 04:28:05;;;;;;;6.32;4.18;;;14.00;99.90;;;;;;6339016;22;20510;-74
2022/08/27 04:30:31;;;;;;;5.10;4.07;;;14.00;99.90;;;;;;6339670;22;20038;-74
2022/08/27 04:32:58;;;;;;;6.00;3.90;;;14.00;99.90;;;;;;6340170;22;20038;-75
2022/08/27 04:35:24;;;;;;;3.97;2.97;;;14.00;99.90;;;;;;6311944;22;20007;-75
2022/08/27 04:37:50;;;;;;;4.28;3.70;;;13.90;99.90;;;;;;6340345;22;20006;-75
2022/08/27 04:40:16;;;;;;;4.20;3.80;;;13.90;99.90;;;;;;6340367;22;20430;-75
2022/08/27 04:42:41;;;;;;;6.53;4.35;;;13.90;99.90;;;;;;6342718;22;20002;-74
2022/08/27 04:45:07;;;;;;;4.45;4.05;;;14.00;99.90;;;;;;6344862;22;19994;-76
2022/08/27 04:47:34;;;;;;;4.45;3.13;;;14.00;99.90;;;;;;6346116;22;20003;-75
2022/08/27 04:49:59;;;;;;;5.80;3.70;;;13.90;99.90;;;;;;6346226;22;20075;-75
2022/08/27 04:52:25;;;;;;;4.97;3.53;;;14.00;99.90;;;;;;6351965;22;20015;-75
2022/08/27 04:54:51;;;;;;;4.13;3.72;;;13.90;99.90;;;;;;6351849;22;20003;-75
2022/08/27 04:57:17;;;;;;;5.60;4.15;;;14.00;99.90;;;;;;6346113;22;20365;-75
2022/08/27 04:59:42;;;;;;;5.43;4.05;;;14.00;99.90;;;;;;6340350;22;20426;-75
2022/08/27 05:02:09;;;;;;;4.60;4.13;;;14.00;99.90;;;;;;6339829;22;20320;-76
2022/08/27 05:04:39;;;;;;;6.47;3.85;;;14.00;99.90;;;;;;6340108;22;20002;-74
2022/08/27 05:07:05;;;;;;;4.30;3.72;;;14.00;99.90;;;;;;6339908;22;20070;-75
2022/08/27 05:09:31;;;;;;;4.03;3.72;;;14.00;99.90;;;;;;6338594;22;20011;-75
2022/08/27 05:11:57;;;;;;;5.50;4.28;;;14.00;99.90;;;;;;6339898;22;20052;-76
2022/08/27 05:14:24;;;;;;;4.70;3.83;;;14.00;99.90;;;;;;6340028;22;20083;-75
2022/08/27 05:16:50;;;;;;;6.50;3.88;;;14.00;99.90;;;;;;6339034;22;20005;-75
2022/08/27 05:19:16;;;;;;;3.97;3.67;;;14.00;99.90;;;;;;6340061;22;20002;-75
2022/08/27 05:21:47;;;;;;;6.38;3.67;;;14.00;99.90;;;;;;6339860;22;20048;-75
2022/08/27 05:24:14;;;;;;;5.47;4.20;;;14.10;99.90;;;;;;6339167;22;20136;-75
2022/08/27 05:26:40;;;;;;;4.88;3.80;;;14.10;99.90;;;;;;6339202;22;20304;-75
2022/08/27 05:29:05;;;;;;;5.13;4.20;;;14.20;99.90;;;;;;6339764;22;20013;-75
2022/08/27 05:31:31;;;;;;;4.80;3.58;;;14.20;99.90;;;;;;6339075;22;20005;-75
2022/08/27 05:33:57;;;;;;;4.22;3.10;;;14.20;99.90;;;;;;6339739;22;19999;-75
2022/08/27 05:36:33;;;;;;;3.78;3.45;;;14.20;99.90;;;;;;6339858;22;20007;-75
2022/08/27 05:39:00;;;;;;;3.53;3.22;;;14.20;99.90;;;;;;6338820;22;20003;-76
2022/08/27 05:41:31;;;;;;;8.27;3.10;;;14.20;99.90;;;;;;6339930;22;19995;-75
2022/08/27 05:44:00;;;;;;;3.83;3.38;;;14.30;99.90;;;;;;6311921;22;19999;-75
2022/08/27 05:46:26;;;;;;;4.57;3.58;;;14.30;99.90;;;;;;6338656;22;20002;-75
2022/08/27 05:48:55;;;;;;;6.03;3.88;;;14.30;99.90;;;;;;6339250;22;20384;-75
2022/08/27 05:51:24;;;;;;;6.75;3.40;;;14.40;99.90;;;;;;6339691;22;20045;-75
2022/08/27 05:53:53;;;;;;;4.20;3.80;;;14.40;99.90;;;;;;6339014;22;20027;-75
2022/08/27 05:56:21;;;;;;;5.30;3.50;;;14.50;99.90;;;;;;6339545;22;20003;-74
2022/08/27 06:01:36;;;;;;;4.88;3.80;;;14.70;99.90;;;;;;6316786;22;20014;-76
2022/08/27 06:04:03;;;;;;;4.60;3.70;;;14.80;99.90;;;;;;6339877;22;20063;-75
2022/08/27 06:06:34;;;;;;;5.85;3.97;;;14.80;99.90;;;;;;6338752;22;19999;-75
2022/08/27 06:09:01;;;;;;;3.65;3.35;;;14.90;99.90;;;;;;6339083;22;20057;-76
2022/08/27 06:11:27;;;;;;;3.53;3.13;;;14.90;99.90;;;;;;6339161;22;20419;-76
2022/08/27 06:13:54;;;;;;;5.00;3.80;;;14.90;99.90;;;;;;6338405;22;20352;-77
2022/08/27 06:16:20;;;;;;;5.85;3.38;;;15.00;99.90;;;;;;6339688;22;20030;-75
2022/08/27 06:18:50;;;;;;;5.68;3.03;;;15.10;99.90;;;;;;6339780;22;20006;-74
2022/08/27 06:21:18;;;;;;;3.70;3.33;;;15.20;99.90;;;;;;6338433;22;20488;-75
2022/08/27 06:23:44;;;;;;;6.43;3.75;;;15.30;99.90;;;;;;6339496;22;20070;-75
2022/08/27 06:26:12;;;;;;;5.95;3.97;;;15.30;99.90;;;;;;6339926;22;20373;-75
2022/08/27 06:28:40;;;;;;;4.90;3.53;;;15.50;99.90;;;;;;6338558;22;20023;-74
2022/08/27 06:31:11;;;;;;;8.10;4.20;;;15.70;99.90;;;;;;6339556;22;20026;-75
2022/08/27 06:33:37;;;;;;;6.68;4.13;;;15.80;99.90;;;;;;6338850;22;19999;-75
2022/08/27 06:36:05;;;;;;;6.18;3.72;;;16.00;99.90;;;;;;6339491;22;20292;-75
2022/08/27 06:38:32;;;;;;;6.22;3.72;;;16.30;99.90;;;;;;6339046;22;20006;-75
2022/08/27 06:40:58;;;;;;;5.70;3.92;;;16.40;99.90;;;;;;6338368;22;20034;-75
2022/08/27 06:43:25;;;;;;;6.35;3.80;;;16.60;99.90;;;;;;6339534;22;20010;-75
2022/08/27 06:45:50;;;;;;;4.85;3.83;;;16.70;99.90;;;;;;6339290;22;20068;-77
2022/08/27 06:48:16;;;;;;;5.75;3.95;;;16.90;99.90;;;;;;6338258;22;20418;-75
2022/08/27 06:50:43;;;;;;;12.32;3.92;;;17.00;99.90;;;;;;6339280;22;20007;-75
2022/08/27 06:53:10;;;;;;;6.22;3.95;;;17.10;99.90;;;;;;6339348;22;19994;-75
2022/08/27 06:55:46;;;;;;;6.28;3.75;;;17.20;99.90;;;;;;6338102;22;20003;-77
2022/08/27 06:58:13;;;;;;;6.30;4.63;;;17.30;99.90;;;;;;6339099;22;20010;-75
2022/08/27 07:00:39;;;;;;;4.93;3.85;;;17.40;99.90;;;;;;6339285;22;20014;-75
2022/08/27 07:03:05;;;;;;;12.90;4.43;;;17.50;99.90;;;;;;6338795;22;20322;-76
2022/08/27 07:05:34;;;;;;;6.32;4.07;;;17.60;99.90;;;;;;6339611;22;20078;-76
2022/08/27 07:07:59;;;;;;;8.43;3.85;;;17.70;99.90;;;;;;6339425;22;20006;-76
2022/08/27 07:10:26;;;;;;;8.02;5.13;;;17.80;99.90;;;;;;6337652;22;20011;-76
2022/08/27 07:12:52;;;;;;;7.65;4.47;;;17.80;99.90;;;;;;6339361;22;20018;-76
2022/08/27 07:15:17;;;;;;;5.28;4.28;;;17.80;99.90;;;;;;6338608;22;20377;-76
2022/08/27 07:17:43;;;;;;;5.35;3.85;;;17.70;99.90;;;;;;6338363;22;20003;-76
2022/08/27 07:20:10;;;;;;;11.05;5.18;;;17.80;99.90;;;;;;6339171;22;20066;-76
2022/08/27 07:22:39;;;;;;;8.63;4.43;;;17.90;99.90;;;;;;6338707;22;20026;-75
2022/08/27 07:25:06;;;;;;;6.45;4.05;;;18.00;99.90;;;;;;6337746;22;20422;-75
2022/08/27 07:27:31;;;;;;;13.00;4.90;;;18.10;99.90;;;;;;6338777;22;20015;-75
2022/08/27 07:29:58;;;;;;;5.18;4.68;;;18.10;99.90;;;;;;6338926;22;20018;-75
2022/08/27 07:32:24;;;;;;;6.15;4.30;;;18.20;99.90;;;;;;6341129;22;20009;-75
2022/08/27 07:34:49;;;;;;;6.38;4.22;;;18.20;99.90;;;;;;6340658;22;20022;-74
2022/08/27 07:37:15;;;;;;;6.43;3.65;;;18.30;99.90;;;;;;6339762;22;20081;-75
2022/08/27 07:39:42;;;;;;;7.10;3.70;;;18.40;99.90;;;;;;6340660;22;20403;-75
2022/08/27 07:44:51;;;;;;;9.73;4.22;;;18.60;99.90;;;;;;6339825;22;20094;-75
2022/08/27 07:47:17;;;;;;;5.05;3.45;;;18.60;99.90;;;;;;6340947;22;20014;-75
2022/08/27 07:49:43;;;;;;;4.78;3.38;;;18.80;99.90;;;;;;6340466;22;20017;-76
2022/08/27 07:52:09;;;;;;;7.10;3.17;;;18.90;99.90;;;;;;6339590;22;20080;-76
2022/08/27 07:54:35;;;;;;;6.00;4.05;;;19.00;99.90;;;;;;6340921;22;20006;-76
2022/08/27 07:57:00;;;;;;;8.57;3.90;;;19.20;99.90;;;;;;6340582;22;20487;-77
2022/08/27 07:59:26;;;;;;;9.48;4.03;;;19.20;99.90;;;;;;6339896;22;20003;-75
2022/08/27 08:01:53;;;;;;;8.38;3.60;;;19.20;99.90;;;;;;6340423;22;20025;-75
2022/08/27 08:04:19;;;;;;;6.50;3.40;;;19.30;99.90;;;;;;6340802;22;20019;-76
2022/08/27 08:06:45;;;;;;;7.50;3.17;;;19.30;99.90;;;;;;6339689;22;20006;-77
2022/08/27 08:09:10;;;;;;;4.93;2.92;;;19.40;99.90;;;;;;6340368;22;20384;-77
2022/08/27 08:11:36;;;;;;;5.93;2.70;;;19.40;99.90;;;;;;6341603;22;20068;-75
2022/08/27 08:14:02;;;;;;;4.95;2.72;;;19.60;99.90;;;;;;6339415;22;20002;-74
2022/08/27 08:16:28;;;;;;;3.75;2.92;;;19.70;99.90;;;;;;6340446;22;19999;-76
2022/08/27 08:18:53;;;;;;;4.70;2.63;;;19.80;99.90;;;;;;6340454;22;20009;-75
2022/08/27 08:21:19;;;;;;;3.15;2.45;;;19.90;99.90;;;;;;6339276;22;20415;-75
2022/08/27 08:23:46;;;;;;;6.85;2.72;;;20.00;99.90;;;;;;6341469;22;20423;-76
2022/08/27 08:26:11;;;;;;;4.68;2.80;;;20.00;99.90;;;;;;6339540;22;20013;-76
2022/08/27 08:28:38;;;;;;;3.38;2.38;;;20.00;99.90;;;;;;6341137;22;20042;-75
2022/08/27 08:31:04;;;;;;;4.68;2.63;;;20.10;99.90;;;;;;6340101;22;20435;-75
2022/08/27 08:33:30;;;;;;;4.30;2.70;;;20.10;99.90;;;;;;6339373;22;20301;-77
2022/08/27 08:36:06;;;;;;;2.72;2.50;;;20.00;99.90;;;;;;6340349;22;20003;-76
2022/08/27 08:38:33;;;;;;;3.65;2.50;;;20.00;99.90;;;;;;6340265;22;20003;-75
2022/08/27 08:41:00;;;;;;;3.17;2.25;;;20.00;99.90;;;;;;6338991;22;20009;-76
2022/08/27 08:43:32;;;;;;;3.72;1.80;;;20.00;99.90;;;;;;6339716;22;20103;-76
2022/08/27 08:46:07;;;;;;;3.42;2.33;;;20.20;99.90;;;;;;6340102;22;20009;-75
2022/08/27 08:48:33;;;;;;;5.80;2.30;;;20.30;99.90;;;;;;6338812;22;20423;-76
2022/08/27 08:51:04;;;;;;;3.10;1.98;;;20.40;99.90;;;;;;6340149;22;20033;-77
2022/08/27 08:53:51;;;;;;;7.88;1.98;;;20.40;99.90;;;;;;6340824;22;19999;-77
2022/08/27 08:56:42;;;;;;;4.47;2.80;;;20.30;99.90;;;;;;6339006;22;20003;-76
2022/08/27 08:59:15;;;;;;;2.83;2.30;;;20.30;99.90;;;;;;6340253;22;20003;-75
2022/08/27 09:01:43;;;;;;;4.82;1.95;;;20.20;99.90;;;;;;6338984;22;20034;-76
2022/08/27 09:04:10;;;;;;;3.70;2.03;;;20.30;99.90;;;;;;6340088;22;20002;-75
2022/08/27 09:07:03;;;;;;;2.72;1.70;;;20.20;99.90;;;;;;6340045;22;20051;-75
2022/08/27 09:09:54;;;;;;;3.05;1.63;;;20.20;99.90;;;;;;6338509;22;20005;-75
2022/08/27 09:12:25;;;;;;;9.98;2.00;;;20.20;99.90;;;;;;6323055;22;20002;-76
2022/08/27 09:14:58;;;;;;;7.43;1.70;;;20.20;99.90;;;;;;6340283;22;20318;-76
2022/08/27 09:17:24;;;;;;;8.07;1.48;;;20.10;99.90;;;;;;6339487;22;19999;-77
2022/08/27 09:19:49;;;;;;;4.35;1.23;;;20.30;99.90;;;;;;6340542;22;20026;-76
2022/08/27 09:22:27;;;;;;;4.35;1.70;;;20.20;99.90;;;;;;6340391;22;20415;-77
2022/08/27 09:25:10;;;;;;;3.22;1.67;;;20.30;99.90;;;;;;6340828;22;20076;-77
2022/08/27 09:27:40;;;;;;;4.22;1.90;;;20.40;99.90;;;;;;6344024;22;20037;-76
2022/08/27 09:30:12;;;;;;;2.92;1.70;;;20.50;99.90;;;;;;6344700;22;20011;-77
2022/08/27 09:32:39;;;;;;;4.90;1.35;;;20.70;99.90;;;;;;6346063;22;20003;-75
2022/08/27 09:35:08;;;;;;;4.90;1.60;;;20.80;99.90;;;;;;6344755;22;20039;-77
2022/08/27 09:37:45;;;;;;;3.28;1.48;;;20.90;99.90;;;;;;6347618;22;20431;-76
2022/08/27 09:40:30;;;;;;;5.60;2.22;;;20.80;99.90;;;;;;6347927;22;20009;-77
2022/08/27 09:43:22;;;;;;;7.93;1.90;;;20.90;99.90;;;;;;6348481;22;20006;-76
2022/08/27 09:45:54;;;;;;;2.45;1.20;;;20.80;99.90;;;;;;6324572;22;19994;-74
2022/08/27 09:48:27;;;;;;;1.70;1.25;;;20.70;99.90;;;;;;6339526;22;20002;-77
2022/08/27 09:51:00;;;;;;;5.47;1.38;;;20.60;99.90;;;;;;6338635;22;20455;-76
2022/08/27 09:54:05;;;;;;;7.78;1.50;;;20.60;99.90;;;;;;6339505;22;20006;-75
2022/08/27 09:56:33;;;;;;;2.97;1.23;;;20.70;99.90;;;;;;6339942;22;20003;-74
2022/08/27 09:59:08;;;;;;;3.28;1.58;;;20.60;99.90;;;;;;6338361;22;20010;-75
2022/08/27 10:01:47;;;;;;;2.83;1.23;;;20.70;99.90;;;;;;6339611;22;19999;-74
2022/08/27 10:04:16;;;;;;;3.23;1.20;;;20.80;99.90;;;;;;6339425;22;19999;-75
2022/08/27 10:06:49;;;;;;;2.08;1.25;;;20.80;99.90;;;;;;6338522;22;20069;-75
2022/08/27 10:09:37;;;;;;;2.78;1.30;;;20.90;99.90;;;;;;6339419;22;20038;-76
2022/08/27 10:12:21;;;;;;;7.13;1.60;;;21.00;99.90;;;;;;6338894;22;20312;-76
2022/08/27 10:14:54;;;;;;;11.93;1.70;;;21.10;99.90;;;;;;6339527;22;20003;-75
2022/08/27 10:17:41;;;;;;;3.53;1.42;;;21.30;99.90;;;;;;6339459;22;19998;-74
2022/08/27 10:20:48;;;;;;;4.78;1.20;;;21.60;99.90;;;;;;6338524;22;20025;-77
2022/08/27 10:23:40;;;;;;;6.45;1.55;;;21.70;99.90;;;;;;6297692;22;20358;-77
2022/08/27 10:26:18;;;;;;;4.18;1.52;;;21.90;99.90;;;;;;6338560;22;20128;-76
2022/08/27 10:29:16;;;;;;;5.78;1.83;;;21.90;99.90;;;;;;6339324;22;20081;-76
2022/08/27 10:32:06;;;;;;;4.63;1.58;;;21.90;99.90;;;;;;6339458;22;20089;-76
2022/08/27 10:34:44;;;;;;;;;;;21.80;99.90;;;;;;6339406;22;19998;-75
2022/08/27 10:37:16;;;;;;;5.60;1.25;;;21.90;99.90;;;;;;6339680;22;19899;-76
2022/08/27 10:40:08;;;;;;;3.55;1.17;;;21.80;99.90;;;;;;6340108;22;19999;-76
2022/08/27 10:42:36;;;;;;;3.00;1.38;;;21.70;99.90;;;;;;6339351;22;20002;-76
2022/08/27 10:45:08;;;;;;;3.05;1.10;;;21.60;99.90;;;;;;6339243;22;20030;-76
2022/08/27 10:47:54;;;;;;;6.00;1.40;;;21.60;99.90;;;;;;6338666;22;19999;-76
2022/08/27 10:50:38;;;;;;;2.58;1.52;;;21.50;99.90;;;;;;6339422;22;20011;-76
2022/08/27 10:53:10;;;;;;;3.00;1.65;;;21.50;99.90;;;;;;6338846;22;20081;-77
2022/08/27 10:55:40;;;;;;;2.55;1.35;;;21.40;99.90;;;;;;6337979;22;20439;-75
2022/08/27 10:58:38;;;;;;;6.57;1.48;;;21.50;99.90;;;;;;6339245;22;20013;-75
2022/08/27 11:01:28;;;;;;;4.40;1.17;;;21.50;99.90;;;;;;6338238;22;19999;-74
2022/08/27 11:04:01;;;;;;;7.57;1.60;;;21.50;99.90;;;;;;6339243;22;20003;-76
2022/08/27 11:06:58;;;;;;;6.28;1.58;;;21.50;99.90;;;;;;6341398;22;20356;-75
2022/08/27 11:09:38;;;;;;;3.92;1.33;;;21.50;99.90;;;;;;6315086;22;20015;-74
2022/08/27 11:12:12;;;;;;;2.72;1.25;;;21.70;99.90;;;;;;6341275;22;20079;-76
2022/08/27 11:14:57;;;;;;;7.18;1.70;;;21.70;99.90;;;;;;6341246;22;20006;-77
2022/08/27 11:17:42;;;;;;;3.25;1.58;;;21.60;99.90;;;;;;6341331;22;20003;-76
2022/08/27 11:20:23;;;;;;;4.22;1.48;;;21.50;99.90;;;;;;6341016;22;20087;-76
2022/08/27 11:23:00;;;;;;;4.55;1.73;;;21.50;99.90;;;;;;6339895;22;19999;-75
2022/08/27 11:25:45;;;;;;;8.60;1.70;;;21.60;99.90;;;;;;6341559;22;19998;-77
2022/08/27 11:28:11;;;;;;;2.72;1.30;;;21.60;99.90;;;;;;6339481;22;20067;-75
2022/08/27 11:31:02;;;;;;;12.25;1.70;;;21.60;99.90;;;;;;6339286;22;20018;-76
2022/08/27 11:33:51;;;;;;;4.05;1.30;;;21.60;99.90;;;;;;6341079;22;20006;-76
2022/08/27 11:36:51;;;;;;;4.47;1.38;;;21.70;99.90;;;;;;6340077;22;20315;-77
2022/08/27 11:39:28;;;;;;;2.35;1.33;;;21.80;99.90;;;;;;6340965;22;19998;-76
2022/08/27 11:42:15;;;;;;;6.47;1.50;;;21.80;99.90;;;;;;6340932;22;20003;-75
2022/08/27 11:44:45;;;;;;;4.13;1.48;;;21.90;99.90;;;;;;6339667;22;20010;-76
2022/08/27 11:47:23;;;;;;;2.75;1.48;;;21.80;99.90;;;;;;6340704;22;19999;-76
2022/08/27 11:49:58;;;;;;;6.50;1.50;;;21.80;99.90;;;;;;6340552;22;20010;-77
2022/08/27 11:52:52;;;;;;;1.83;1.20;;;21.90;99.90;;;;;;6339827;22;20010;-76
2022/08/27 11:55:20;;;;;;;2.90;1.30;;;21.90;99.90;;;;;;6339446;22;20002;-76
2022/08/27 11:57:48;;;;;;;3.72;1.38;;;21.90;99.90;;;;;;6339512;22;20419;-76
2022/08/27 12:00:25;;;;;;;2.97;1.50;;;21.80;99.90;;;;;;6340705;22;20018;-76
2022/08/27 12:03:00;;;;;;;5.60;1.50;;;22.00;99.90;;;;;;6341154;22;20003;-76
2022/08/27 12:05:41;;;;;;;6.95;1.70;;;22.20;99.90;;;;;;6340085;22;20038;-76
2022/08/27 12:08:25;;;;;;;5.05;1.45;;;22.20;99.60;;;;;;6340329;22;19998;-76
2022/08/27 12:10:57;;;;;;;2.53;1.02;;;22.30;99.20;;;;;;6340283;22;20011;-76
2022/08/27 12:13:44;;;;;;;3.08;1.48;;;22.40;99.30;;;;;;6339401;22;20415;-76
2022/08/27 12:16:42;;;;;;;3.63;1.10;;;22.60;99.30;;;;;;6339636;22;20052;-75
2022/08/27 12:19:17;;;;;;;2.33;1.00;;;22.80;98.50;;;;;;6339685;22;20003;-75
2022/08/27 12:21:47;;;;;;;4.40;1.25;;;22.90;98.00;;;;;;6340646;22;20320;-76
2022/08/27 12:24:39;;;;;;;3.78;1.33;;;23.00;97.20;;;;;;6341123;22;20048;-76
2022/08/27 12:27:20;;;;;;;5.03;1.40;;;23.00;97.30;;;;;;6340245;22;20019;-75
2022/08/27 12:29:52;;;;;;;6.05;1.20;;;23.10;97.40;;;;;;6342113;22;20007;-77
2022/08/27 12:32:46;;;;;;;8.38;2.05;;;23.00;97.60;;;;;;6345227;22;20005;-74
2022/08/27 12:35:18;;;;;;;2.70;1.08;;;23.00;98.00;;;;;;6348734;22;20052;-76
2022/08/27 12:37:50;;;;;;;4.70;1.48;;;23.10;97.80;;;;;;6346094;22;19999;-76
2022/08/27 12:40:23;;;;;;;2.28;1.02;;;23.20;98.10;;;;;;6344624;22;20002;-76
2022/08/27 12:42:51;;;;;;;2.83;1.10;;;23.20;97.40;;;;;;6343870;22;19999;-76
2022/08/27 12:45:23;;;;;;;4.55;1.13;;;23.10;97.30;;;;;;6340494;22;20064;-77
2022/08/27 12:47:50;;;;;;;2.20;1.20;;;22.90;97.50;;;;;;6339687;22;20009;-75
2022/08/27 12:50:21;;;;;;;2.88;1.30;;;22.80;97.80;;;;;;6340830;22;20055;-76
2022/08/27 12:53:02;;;;;;;3.13;1.30;;;22.60;98.00;;;;;;6340348;22;19999;-75
2022/08/27 12:55:31;;;;;;;3.13;1.00;;;22.80;97.90;;;;;;6339414;22;19998;-75
2022/08/27 12:58:09;;;;;;;2.42;0.85;;;23.00;97.10;;;;;;6339743;22;20543;-76
2022/08/27 13:00:53;;;;;;;3.55;1.30;;;23.40;97.40;;;;;;6339189;22;20034;-76
2022/08/27 13:03:36;;;;;;;3.10;1.42;;;23.40;96.30;;;;;;6339913;22;20066;-77
2022/08/27 13:06:26;;;;;;;4.22;1.10;;;23.50;96.20;;;;;;6340087;22;19998;-76
2022/08/27 13:08:58;;;;;;;6.13;1.85;;;23.40;95.70;;;;;;6339167;22;20078;-76
2022/08/27 13:11:28;;;;;;;5.07;1.38;;;23.40;96.20;;;;;;6340493;22;20010;-76
2022/08/27 13:14:16;;;;;;;7.25;1.80;;;23.40;95.80;;;;;;6312296;22;20025;-76